createdAt,value
2018-05-27T00:00:52.665Z,16.70
2018-05-27T00:03:20.116Z,16.70
2018-05-27T00:05:48.365Z,16.80
2018-05-27T00:08:15.829Z,16.70
2018-05-27T00:10:43.314Z,16.80
2018-05-27T00:13:10.875Z,16.70
2018-05-27T00:15:39.309Z,16.70
2018-05-27T00:18:06.785Z,16.70
2018-05-27T00:20:34.281Z,16.70
2018-05-27T00:23:03.252Z,16.50
2018-05-27T00:25:30.717Z,16.50
2018-05-27T00:27:58.194Z,16.40
2018-05-27T00:30:25.735Z,16.30
2018-05-27T00:32:53.200Z,16.30
2018-05-27T00:35:21.444Z,15.90
2018-05-27T00:37:48.917Z,16.10
2018-05-27T00:40:16.387Z,15.90
2018-05-27T00:42:43.938Z,15.90
2018-05-27T00:45:11.414Z,16.00
2018-05-27T00:47:39.484Z,15.90
2018-05-27T00:50:06.969Z,15.90
2018-05-27T00:52:35.213Z,16.10
2018-05-27T00:55:02.696Z,16.10
2018-05-27T00:57:30.917Z,16.10
2018-05-27T00:59:58.373Z,16.10
2018-05-27T01:02:25.830Z,16.10
2018-05-27T01:04:53.295Z,16.10
2018-05-27T01:07:20.755Z,16.10
2018-05-27T01:09:48.210Z,16.00
2018-05-27T01:12:15.670Z,16.00
2018-05-27T01:14:43.160Z,15.80
2018-05-27T01:17:10.714Z,15.80
2018-05-27T01:19:38.276Z,15.80
2018-05-27T01:22:05.868Z,15.70
2018-05-27T01:24:33.320Z,15.60
2018-05-27T01:27:00.782Z,15.50
2018-05-27T01:29:29.031Z,15.70
2018-05-27T01:31:56.505Z,15.70
2018-05-27T01:34:24.052Z,15.80
2018-05-27T01:36:51.516Z,15.70
2018-05-27T01:39:18.979Z,15.70
2018-05-27T01:41:46.458Z,15.70
2018-05-27T01:44:14.671Z,15.70
2018-05-27T01:46:42.149Z,15.70
2018-05-27T01:49:09.622Z,15.60
2018-05-27T01:51:38.606Z,15.70
2018-05-27T01:54:06.072Z,15.70
2018-05-27T01:56:33.539Z,15.80
2018-05-27T01:59:00.992Z,15.70
2018-05-27T02:01:28.459Z,15.60
2018-05-27T02:03:56.731Z,15.60
2018-05-27T02:06:24.956Z,15.60
2018-05-27T02:08:52.417Z,15.60
2018-05-27T02:11:19.899Z,15.60
2018-05-27T02:13:47.365Z,15.60
2018-05-27T02:16:14.834Z,15.60
2018-05-27T02:18:42.291Z,15.60
2018-05-27T02:21:09.858Z,15.50
2018-05-27T02:23:37.315Z,15.50
2018-05-27T02:26:04.776Z,15.30
2018-05-27T02:28:32.235Z,15.10
2018-05-27T02:30:59.763Z,15.10
2018-05-27T02:33:27.225Z,15.00
2018-05-27T02:35:54.693Z,14.70
2018-05-27T02:38:22.147Z,14.50
2018-05-27T02:40:49.616Z,14.40
2018-05-27T02:43:17.181Z,14.40
2018-05-27T02:45:45.543Z,14.40
2018-05-27T02:48:13.007Z,14.60
2018-05-27T02:50:40.457Z,14.60
2018-05-27T02:53:07.916Z,14.60
2018-05-27T02:55:35.383Z,14.50
2018-05-27T02:58:02.839Z,14.50
2018-05-27T03:00:30.295Z,14.60
2018-05-27T03:02:57.758Z,14.70
2018-05-27T03:05:25.235Z,14.80
2018-05-27T03:07:54.215Z,14.80
2018-05-27T03:10:21.680Z,14.80
2018-05-27T03:12:49.241Z,14.80
2018-05-27T03:15:16.695Z,14.70
2018-05-27T03:17:44.187Z,14.70
2018-05-27T03:20:12.431Z,14.70
2018-05-27T03:22:39.914Z,14.60
2018-05-27T03:25:07.369Z,14.70
2018-05-27T03:27:35.635Z,14.60
2018-05-27T03:30:03.184Z,14.60
2018-05-27T03:32:30.751Z,14.70
2018-05-27T03:34:58.223Z,14.70
2018-05-27T03:37:25.691Z,14.70
2018-05-27T03:39:53.938Z,14.60
2018-05-27T03:42:21.495Z,14.60
2018-05-27T03:44:48.950Z,14.60
2018-05-27T03:47:16.423Z,14.60
2018-05-27T03:49:44.669Z,14.50
2018-05-27T03:52:12.141Z,14.50
2018-05-27T03:54:39.619Z,14.50
2018-05-27T03:57:08.590Z,14.30
2018-05-27T03:59:36.065Z,14.30
2018-05-27T04:02:03.534Z,14.40
2018-05-27T04:04:53.206Z,14.50
2018-05-27T04:07:32.641Z,14.50
2018-05-27T04:10:00.092Z,14.60
2018-05-27T04:12:27.659Z,14.60
2018-05-27T04:14:55.111Z,14.70
2018-05-27T04:17:22.585Z,14.80
2018-05-27T04:19:50.863Z,14.70
2018-05-27T04:22:18.328Z,14.70
2018-05-27T04:24:47.296Z,14.80
2018-05-27T04:27:14.764Z,14.80
2018-05-27T04:29:42.318Z,14.80
2018-05-27T04:32:09.788Z,14.80
2018-05-27T04:34:37.259Z,14.80
2018-05-27T04:37:04.727Z,14.90
2018-05-27T04:39:32.979Z,14.90
2018-05-27T04:42:00.464Z,14.90
2018-05-27T04:44:28.687Z,15.00
2018-05-27T04:46:56.174Z,14.90
2018-05-27T04:49:23.632Z,14.90
2018-05-27T04:51:52.628Z,15.10
2018-05-27T04:54:20.867Z,15.20
2018-05-27T04:56:48.326Z,15.20
2018-05-27T04:59:15.795Z,15.30
2018-05-27T05:01:43.246Z,15.30
2018-05-27T05:04:10.739Z,15.50
2018-05-27T05:06:38.297Z,15.60
2018-05-27T05:09:05.868Z,15.70
2018-05-27T05:11:33.334Z,15.80
2018-05-27T05:14:00.875Z,15.90
2018-05-27T05:16:29.099Z,16.30
2018-05-27T05:18:56.567Z,16.30
2018-05-27T05:21:24.018Z,16.50
2018-05-27T05:23:51.479Z,16.60
2018-05-27T05:26:18.938Z,16.80
2018-05-27T05:28:46.508Z,16.90
2018-05-27T05:31:13.947Z,17.00
2018-05-27T05:33:41.418Z,17.20
2018-05-27T05:36:08.919Z,17.30
2018-05-27T05:38:36.343Z,17.40
2018-05-27T05:41:03.804Z,17.60
2018-05-27T05:43:31.269Z,17.70
2018-05-27T05:45:58.734Z,17.90
2018-05-27T05:48:26.219Z,18.00
2018-05-27T05:50:53.680Z,18.20
2018-05-27T05:53:21.152Z,18.30
2018-05-27T05:55:48.615Z,18.40
2018-05-27T05:58:16.843Z,18.70
2018-05-27T06:00:44.314Z,18.60
2018-05-27T06:03:11.772Z,18.80
2018-05-27T06:05:39.235Z,18.90
2018-05-27T06:08:06.706Z,19.10
2018-05-27T06:10:34.170Z,19.20
2018-05-27T06:13:01.635Z,19.30
2018-05-27T06:15:29.116Z,19.50
2018-05-27T06:17:57.391Z,19.90
2018-05-27T06:20:25.623Z,20.10
2018-05-27T06:22:53.084Z,20.00
2018-05-27T06:25:20.555Z,20.20
2018-05-27T06:27:48.015Z,20.40
2018-05-27T06:30:15.484Z,20.30
2018-05-27T06:32:43.712Z,20.70
2018-05-27T06:35:11.188Z,20.70
2018-05-27T06:37:38.655Z,20.70
2018-05-27T06:40:06.124Z,20.90
2018-05-27T06:42:33.585Z,21.00
2018-05-27T06:45:01.047Z,21.10
2018-05-27T06:47:28.522Z,21.10
2018-05-27T06:49:56.752Z,21.20
2018-05-27T06:52:24.203Z,21.20
2018-05-27T06:54:51.667Z,21.20
2018-05-27T06:57:19.887Z,21.50
2018-05-27T06:59:48.113Z,21.50
2018-05-27T07:02:15.574Z,21.60
2018-05-27T07:04:43.117Z,21.70
2018-05-27T07:07:10.516Z,21.80
2018-05-27T07:09:38.766Z,22.00
2018-05-27T07:12:06.218Z,21.90
2018-05-27T07:14:33.691Z,22.10
2018-05-27T07:17:01.191Z,22.20
2018-05-27T07:19:28.645Z,22.40
2018-05-27T07:21:56.099Z,22.70
2018-05-27T07:24:23.566Z,22.70
2018-05-27T07:26:51.036Z,22.70
2018-05-27T07:29:19.266Z,22.90
2018-05-27T07:31:46.734Z,22.80
2018-05-27T07:34:14.185Z,23.00
2018-05-27T07:36:41.658Z,23.10
2018-05-27T07:39:09.139Z,23.20
2018-05-27T07:41:36.585Z,23.50
2018-05-27T07:44:04.044Z,23.70
2018-05-27T07:46:31.518Z,23.70
2018-05-27T07:48:59.152Z,23.70
2018-05-27T07:51:26.596Z,23.90
2018-05-27T07:53:54.047Z,23.90
2018-05-27T07:56:21.510Z,23.90
2018-05-27T07:58:48.979Z,23.90
2018-05-27T08:01:16.444Z,24.10
2018-05-27T08:03:43.904Z,24.20
2018-05-27T08:06:11.361Z,24.40
2018-05-27T08:08:38.822Z,24.60
2018-05-27T08:11:06.293Z,24.70
2018-05-27T08:13:33.755Z,24.80
2018-05-27T08:16:01.211Z,24.60
2018-05-27T08:18:28.711Z,24.20
2018-05-27T08:20:56.176Z,24.30
2018-05-27T08:23:23.634Z,24.50
2018-05-27T08:25:51.099Z,24.60
2018-05-27T08:28:18.556Z,24.60
2018-05-27T08:30:46.035Z,24.80
2018-05-27T08:33:13.505Z,24.80
2018-05-27T08:35:40.967Z,24.90
2018-05-27T08:38:08.425Z,25.00
2018-05-27T08:40:35.887Z,25.10
2018-05-27T08:43:03.341Z,25.20
2018-05-27T08:45:30.868Z,25.40
2018-05-27T08:47:58.320Z,25.50
2018-05-27T08:50:27.007Z,25.60
2018-05-27T08:52:54.449Z,25.70
2018-05-27T08:55:21.911Z,25.80
2018-05-27T08:57:49.382Z,25.80
2018-05-27T09:00:17.016Z,25.80
2018-05-27T09:02:45.237Z,26.20
2018-05-27T09:05:12.698Z,26.10
2018-05-27T09:07:40.172Z,26.30
2018-05-27T09:10:07.623Z,26.50
2018-05-27T09:12:35.097Z,26.50
2018-05-27T09:15:02.569Z,26.40
2018-05-27T09:17:30.016Z,26.50
2018-05-27T09:19:57.464Z,26.60
2018-05-27T09:22:24.915Z,26.60
2018-05-27T09:27:46.056Z,26.90
2018-05-27T09:30:15.171Z,26.90
2018-05-27T09:32:42.632Z,27.00
2018-05-27T09:35:10.097Z,27.10
2018-05-27T09:37:38.331Z,27.20
2018-05-27T09:40:05.792Z,27.10
2018-05-27T09:42:33.253Z,27.10
2018-05-27T09:45:00.797Z,27.10
2018-05-27T09:47:28.204Z,27.10
2018-05-27T09:49:56.428Z,27.00
2018-05-27T09:52:23.937Z,27.10
2018-05-27T09:54:51.420Z,27.10
2018-05-27T09:57:19.647Z,27.00
2018-05-27T09:59:47.109Z,27.00
2018-05-27T10:02:14.597Z,27.00
2018-05-27T10:04:42.090Z,26.80
2018-05-27T10:07:09.545Z,26.60
2018-05-27T10:09:37.008Z,26.40
2018-05-27T10:12:04.477Z,26.10
2018-05-27T10:14:31.936Z,25.90
2018-05-27T10:16:59.404Z,25.80
2018-05-27T10:19:26.861Z,25.70
2018-05-27T10:21:54.328Z,25.60
2018-05-27T10:24:22.330Z,25.60
2018-05-27T10:26:49.812Z,25.50
2018-05-27T10:29:17.273Z,25.50
2018-05-27T10:31:44.745Z,25.50
2018-05-27T10:34:12.200Z,25.50
2018-05-27T10:36:39.678Z,25.70
2018-05-27T10:39:07.193Z,26.00
2018-05-27T10:41:34.691Z,26.30
2018-05-27T10:44:02.155Z,26.50
2018-05-27T10:46:29.629Z,26.80
2018-05-27T10:48:57.093Z,27.10
2018-05-27T10:51:24.556Z,27.30
2018-05-27T10:53:52.017Z,27.50
2018-05-27T10:56:19.499Z,27.70
2018-05-27T10:58:47.724Z,27.70
2018-05-27T11:01:15.185Z,27.70
2018-05-27T11:03:42.655Z,27.70
2018-05-27T11:06:10.112Z,27.70
2018-05-27T11:08:37.577Z,27.70
2018-05-27T11:11:05.030Z,27.70
2018-05-27T11:13:32.507Z,27.50
2018-05-27T11:15:59.960Z,27.40
2018-05-27T11:18:27.432Z,27.30
2018-05-27T11:20:54.900Z,27.30
2018-05-27T11:23:22.372Z,27.30
2018-05-27T11:25:50.604Z,27.40
2018-05-27T11:28:18.087Z,27.50
2018-05-27T11:30:45.535Z,27.50
2018-05-27T11:33:13.000Z,27.50
2018-05-27T11:35:40.457Z,27.40
2018-05-27T11:38:07.949Z,27.50
2018-05-27T11:40:36.173Z,27.80
2018-05-27T11:43:03.649Z,27.80
2018-05-27T11:45:31.117Z,27.80
2018-05-27T11:47:58.581Z,28.00
2018-05-27T11:50:26.875Z,28.30
2018-05-27T11:52:54.344Z,28.30
2018-05-27T11:55:21.808Z,28.30
2018-05-27T11:57:49.288Z,28.20
2018-05-27T12:00:16.750Z,28.30
2018-05-27T12:02:44.237Z,28.00
2018-05-27T12:05:11.695Z,28.10
2018-05-27T12:07:39.176Z,28.00
2018-05-27T12:10:07.469Z,27.60
2018-05-27T12:12:35.689Z,27.50
2018-05-27T12:15:03.534Z,27.50
2018-05-27T12:17:30.994Z,27.20
2018-05-27T12:19:58.461Z,27.00
2018-05-27T12:22:25.920Z,26.90
2018-05-27T12:24:53.373Z,26.80
2018-05-27T12:27:20.844Z,27.00
2018-05-27T12:29:48.374Z,27.30
2018-05-27T12:32:15.767Z,27.60
2018-05-27T12:34:43.237Z,27.80
2018-05-27T12:37:10.715Z,27.70
2018-05-27T12:39:38.169Z,27.70
2018-05-27T12:42:05.635Z,27.60
2018-05-27T12:44:33.105Z,27.70
2018-05-27T12:47:01.324Z,27.60
2018-05-27T12:49:28.890Z,27.60
2018-05-27T12:51:56.353Z,27.30
2018-05-27T12:54:23.816Z,27.30
2018-05-27T12:56:51.277Z,27.20
2018-05-27T12:59:18.748Z,27.10
2018-05-27T13:01:46.208Z,27.00
2018-05-27T13:04:13.665Z,26.90
2018-05-27T13:06:41.227Z,26.90
2018-05-27T13:09:08.679Z,27.00
2018-05-27T13:11:36.143Z,27.10
2018-05-27T13:14:03.604Z,27.10
2018-05-27T13:16:31.218Z,27.20
2018-05-27T13:18:59.441Z,27.00
2018-05-27T13:21:26.909Z,26.90
2018-05-27T13:23:54.362Z,27.10
2018-05-27T13:26:21.827Z,27.10
2018-05-27T13:28:49.283Z,27.40
2018-05-27T13:31:16.862Z,27.50
2018-05-27T13:33:44.324Z,27.70
2018-05-27T13:38:47.287Z,27.40
2018-05-27T13:41:14.781Z,27.40
2018-05-27T13:43:43.038Z,27.10
2018-05-27T13:46:10.537Z,27.00
2018-05-27T13:48:38.772Z,27.40
2018-05-27T13:51:06.224Z,27.40
2018-05-27T13:53:33.693Z,27.60
2018-05-27T13:56:01.151Z,27.70
2018-05-27T13:58:28.615Z,27.60
2018-05-27T14:00:56.079Z,27.70
2018-05-27T14:03:23.544Z,27.70
2018-05-27T14:05:51.000Z,27.80
2018-05-27T14:08:18.459Z,28.00
2018-05-27T14:10:45.916Z,28.10
2018-05-27T14:13:13.390Z,28.10
2018-05-27T14:15:41.618Z,28.40
2018-05-27T14:18:09.080Z,28.40
2018-05-27T14:20:36.654Z,28.60
2018-05-27T14:23:04.136Z,28.60
2018-05-27T14:25:32.372Z,28.50
2018-05-27T14:27:59.913Z,28.50
2018-05-27T14:30:27.368Z,28.70
2018-05-27T14:32:54.860Z,28.70
2018-05-27T14:35:22.345Z,28.70
2018-05-27T14:37:49.799Z,28.70
2018-05-27T14:40:17.259Z,28.70
2018-05-27T14:42:44.764Z,29.00
2018-05-27T14:45:12.238Z,29.00
2018-05-27T14:47:39.689Z,28.80
2018-05-27T14:50:07.196Z,28.80
2018-05-27T14:52:34.678Z,28.70
2018-05-27T14:55:02.907Z,28.80
2018-05-27T14:57:30.392Z,28.80
2018-05-27T15:00:10.793Z,29.00
2018-05-27T15:02:38.295Z,29.00
2018-05-27T15:05:05.755Z,29.20
2018-05-27T15:07:33.229Z,29.50
2018-05-27T15:10:00.683Z,29.40
2018-05-27T15:12:28.148Z,29.40
2018-05-27T15:14:55.626Z,29.40
2018-05-27T15:17:23.844Z,29.20
2018-05-27T15:19:51.308Z,29.20
2018-05-27T15:22:19.533Z,29.30
2018-05-27T15:24:47.811Z,29.30
2018-05-27T15:27:16.035Z,29.10
2018-05-27T15:29:43.512Z,29.10
2018-05-27T15:32:10.971Z,29.20
2018-05-27T15:34:38.496Z,29.30
2018-05-27T15:37:05.976Z,29.50
2018-05-27T15:39:33.442Z,29.30
2018-05-27T15:42:00.900Z,29.30
2018-05-27T15:44:28.375Z,29.00
2018-05-27T15:46:55.829Z,28.90
2018-05-27T15:49:23.296Z,28.60
2018-05-27T15:51:50.745Z,28.30
2018-05-27T15:54:18.204Z,28.10
2018-05-27T15:56:45.673Z,28.00
2018-05-27T15:59:13.153Z,28.00
2018-05-27T16:01:41.376Z,27.70
2018-05-27T16:04:08.846Z,27.70
2018-05-27T16:06:36.305Z,27.50
2018-05-27T16:09:03.768Z,27.50
2018-05-27T16:11:31.229Z,27.60
2018-05-27T16:13:58.688Z,27.60
2018-05-27T16:16:26.145Z,27.70
2018-05-27T16:18:53.600Z,27.60
2018-05-27T16:21:21.077Z,27.50
2018-05-27T16:23:48.549Z,27.50
2018-05-27T16:26:16.779Z,27.30
2018-05-27T16:28:44.249Z,27.30
2018-05-27T16:31:11.720Z,27.30
2018-05-27T16:33:39.177Z,27.30
2018-05-27T16:36:06.708Z,27.40
2018-05-27T16:38:34.172Z,27.40
2018-05-27T16:41:01.694Z,27.40
2018-05-27T16:43:29.140Z,27.50
2018-05-27T16:45:57.374Z,27.40
2018-05-27T16:48:24.829Z,27.40
2018-05-27T16:50:52.299Z,27.30
2018-05-27T16:53:19.755Z,27.30
2018-05-27T16:55:47.224Z,27.30
2018-05-27T16:58:14.693Z,27.30
2018-05-27T17:00:42.172Z,27.20
2018-05-27T17:03:10.391Z,27.10
2018-05-27T17:05:37.859Z,27.10
2018-05-27T17:08:05.319Z,26.90
2018-05-27T17:10:32.781Z,26.70
2018-05-27T17:13:00.250Z,26.60
2018-05-27T17:15:27.704Z,26.50
2018-05-27T17:17:55.156Z,26.40
2018-05-27T17:20:22.629Z,26.40
2018-05-27T17:22:50.083Z,26.20
2018-05-27T17:25:17.553Z,26.10
2018-05-27T17:27:45.010Z,25.90
2018-05-27T17:30:12.467Z,25.90
2018-05-27T17:32:39.920Z,25.90
2018-05-27T17:35:07.393Z,25.80
2018-05-27T17:37:34.864Z,25.80
2018-05-27T17:40:03.109Z,25.60
2018-05-27T17:42:30.563Z,25.50
2018-05-27T17:44:58.061Z,25.50
2018-05-27T17:47:25.509Z,25.40
2018-05-27T17:49:52.989Z,25.40
2018-05-27T17:52:21.220Z,25.30
2018-05-27T17:54:48.676Z,25.20
2018-05-27T17:57:16.141Z,25.30
2018-05-27T17:59:43.600Z,25.20
2018-05-27T18:02:11.077Z,25.20
2018-05-27T18:04:38.554Z,25.30
2018-05-27T18:07:06.780Z,25.30
2018-05-27T18:09:34.238Z,25.30
2018-05-27T18:12:01.709Z,25.30
2018-05-27T18:14:29.930Z,25.10
2018-05-27T18:16:58.152Z,25.10
2018-05-27T18:19:25.996Z,25.10
2018-05-27T18:21:53.473Z,25.10
2018-05-27T18:24:20.930Z,25.10
2018-05-27T18:26:48.400Z,25.00
2018-05-27T18:29:15.878Z,24.90
2018-05-27T18:31:43.350Z,24.70
2018-05-27T18:34:10.848Z,24.40
2018-05-27T18:36:38.314Z,24.20
2018-05-27T18:39:05.869Z,23.80
2018-05-27T18:41:33.326Z,23.60
2018-05-27T18:44:00.796Z,23.50
2018-05-27T18:46:28.263Z,23.30
2018-05-27T18:48:55.712Z,23.30
2018-05-27T18:51:23.180Z,23.40
2018-05-27T18:53:50.644Z,23.50
2018-05-27T18:56:18.116Z,23.70
2018-05-27T18:58:45.816Z,23.80
2018-05-27T19:01:14.032Z,23.80
2018-05-27T19:03:41.516Z,23.80
2018-05-27T19:06:08.977Z,23.90
2018-05-27T19:08:36.455Z,23.90
2018-05-27T19:11:03.916Z,23.90
2018-05-27T19:13:32.142Z,23.80
2018-05-27T19:15:59.614Z,23.80
2018-05-27T19:18:27.100Z,23.70
2018-05-27T19:20:54.575Z,23.70
2018-05-27T19:23:22.804Z,23.50
2018-05-27T19:25:50.284Z,23.50
2018-05-27T19:28:17.781Z,23.30
2018-05-27T19:30:46.025Z,23.30
2018-05-27T19:33:13.474Z,23.20
2018-05-27T19:35:40.936Z,23.20
2018-05-27T19:38:08.391Z,23.20
2018-05-27T19:40:35.847Z,23.10
2018-05-27T19:43:03.328Z,23.10
2018-05-27T19:45:30.783Z,23.10
2018-05-27T19:47:58.280Z,23.00
2018-05-27T19:50:25.748Z,23.00
2018-05-27T19:52:53.216Z,23.10
2018-05-27T19:55:20.677Z,23.10
2018-05-27T19:57:48.190Z,23.10
2018-05-27T20:00:15.614Z,23.10
2018-05-27T20:02:43.080Z,23.00
2018-05-27T20:05:10.540Z,23.10
2018-05-27T20:07:38.056Z,23.10
2018-05-27T20:10:05.520Z,22.90
2018-05-27T20:12:32.994Z,22.70
2018-05-27T20:15:00.465Z,22.70
2018-05-27T20:17:27.918Z,22.60
2018-05-27T20:19:55.375Z,22.60
2018-05-27T20:22:22.846Z,22.50
2018-05-27T20:24:50.307Z,22.50
2018-05-27T20:27:17.777Z,22.50
2018-05-27T20:29:45.254Z,22.50
2018-05-27T20:32:13.491Z,22.50
2018-05-27T20:34:40.945Z,22.40
2018-05-27T20:37:08.451Z,22.40
2018-05-27T20:39:36.672Z,22.20
2018-05-27T20:42:04.141Z,22.30
2018-05-27T20:44:31.611Z,22.10
2018-05-27T20:46:59.104Z,22.10
2018-05-27T20:49:26.575Z,22.00
2018-05-27T20:51:54.045Z,22.00
2018-05-27T20:54:21.505Z,21.90
2018-05-27T20:56:49.012Z,21.80
2018-05-27T20:59:16.484Z,21.70
2018-05-27T21:01:43.953Z,21.40
2018-05-27T21:04:12.193Z,21.30
2018-05-27T21:06:44.511Z,21.20
2018-05-27T21:09:12.741Z,21.20
2018-05-27T21:11:40.211Z,21.10
2018-05-27T21:14:07.677Z,21.10
2018-05-27T21:16:35.146Z,21.10
2018-05-27T21:19:02.615Z,21.10
2018-05-27T21:21:30.846Z,20.90
2018-05-27T21:23:58.322Z,20.90
2018-05-27T21:26:25.787Z,20.70
2018-05-27T21:28:53.260Z,20.60
2018-05-27T21:31:21.493Z,20.60
2018-05-27T21:33:48.959Z,20.60
2018-05-27T21:36:16.495Z,20.60
2018-05-27T21:38:43.961Z,20.60
2018-05-27T21:41:11.461Z,20.60
2018-05-27T21:43:38.934Z,20.60
2018-05-27T21:46:07.215Z,20.50
2018-05-27T21:48:34.656Z,20.50
2018-05-27T21:51:02.112Z,20.50
2018-05-27T21:53:29.585Z,20.40
2018-05-27T21:55:57.829Z,20.20
2018-05-27T21:58:25.297Z,20.20
2018-05-27T22:00:52.759Z,20.10
2018-05-27T22:03:20.279Z,20.20
2018-05-27T22:05:47.738Z,20.20
2018-05-27T22:08:15.200Z,20.10
2018-05-27T22:10:42.663Z,20.10
2018-05-27T22:13:10.141Z,20.00
2018-05-27T22:15:37.606Z,20.00
2018-05-27T22:18:05.077Z,19.90
2018-05-27T22:20:32.580Z,19.90
2018-05-27T22:22:59.991Z,19.80
2018-05-27T22:25:27.499Z,19.60
2018-05-27T22:27:55.022Z,19.50
2018-05-27T22:30:22.427Z,19.40
2018-05-27T22:32:49.897Z,19.30
2018-05-27T22:35:17.362Z,19.20
2018-05-27T22:37:44.823Z,19.00
2018-05-27T22:40:12.283Z,19.00
2018-05-27T22:42:39.756Z,18.80
2018-05-27T22:45:07.227Z,18.90
2018-05-27T22:47:34.691Z,18.90
2018-05-27T22:50:02.932Z,18.80
2018-05-27T22:52:30.410Z,18.80
2018-05-27T22:54:58.448Z,18.80
2018-05-27T22:57:25.913Z,18.80
2018-05-27T22:59:53.383Z,18.80
2018-05-27T23:02:20.859Z,18.80
2018-05-27T23:04:48.316Z,18.80
2018-05-27T23:07:15.776Z,18.80
2018-05-27T23:09:43.248Z,18.90
2018-05-27T23:12:11.485Z,19.00
2018-05-27T23:14:38.958Z,19.00
2018-05-27T23:17:06.433Z,19.00
2018-05-27T23:19:33.900Z,19.00
2018-05-27T23:22:02.128Z,19.00
2018-05-27T23:24:29.609Z,19.00
2018-05-27T23:26:57.087Z,19.00
2018-05-27T23:29:24.553Z,19.00
2018-05-27T23:31:52.793Z,19.00
2018-05-27T23:34:20.265Z,19.00
2018-05-27T23:36:47.719Z,19.00
2018-05-27T23:39:15.192Z,19.10
2018-05-27T23:41:42.652Z,19.10
2018-05-27T23:44:10.123Z,19.00
2018-05-27T23:46:38.360Z,18.90
2018-05-27T23:49:05.832Z,18.90
2018-05-27T23:51:33.283Z,19.00
2018-05-27T23:54:00.757Z,19.00
2018-05-27T23:56:28.215Z,18.90
2018-05-27T23:58:55.684Z,18.80
